EGCK

Caernarfon Airport

Caernarfon, United Kingdom
METAR EGCK 232320Z AUTO 18023G33KT 9999 OVC006/// 09/08 Q1004
Observed Flight Rules
Jan-23 @ 23:20 UTC (10 minutes ago) Instrument Flight Rules
Wind Visibility Clouds
180° at 23 knots
 Gusting to 33 knots
10,000+ meters
  • Overcast at 600' AGL
Temperatures Readings
Current 9°C / 48°F
Dewpoint 8°C / 46°F
Humidity 94%
Altimeter 29.65" Hg
Pressure 1004 hPa
Elevation 0
METAR EGCK 232320Z AUTO 18023G33KT 9999 OVC006/// 09/08 Q1004
Observed Flight Rules
Jan-23 @ 23:20 UTC
(10 minutes ago)
IFR
Wind Visibility
180° at 23 knots
 Gusting to 33 knots
10,000+ meters
Clouds
  • Overcast at 600' AGL
Temperature Dewpoint
9°C / 48°F 8°C / 46°F
Humidity Altimeter Pressure
94% 29.65" Hg 1004 hPa